Time;durP1;ratioP1;P1;durP2;ratioP2;P2;SDS_P1;SDS_P2;PMS_P1;PMS_P2;Temp;Humidity;BMP_temperature;BMP_pressure;BME280_temperature;BME280_humidity;BME280_pressure;Samples;Min_cycle;Max_cycle;Signal;HPM_P1;HPM_P2
2023/10/25 00:00:31;;;;;;;4.30;1.60;;;12.50;99.90;;;;;;4995808;28;20030;-82
2023/10/25 00:02:56;;;;;;;6.30;2.45;;;12.50;99.90;;;;;;5013409;28;20034;-81
2023/10/25 00:05:22;;;;;;;8.07;2.42;;;12.50;99.90;;;;;;5013211;28;20057;-83
2023/10/25 00:07:47;;;;;;;6.32;2.20;;;12.40;99.90;;;;;;5011430;28;20111;-83
2023/10/25 00:10:13;;;;;;;5.25;2.05;;;12.40;99.90;;;;;;5012277;28;20042;-82
2023/10/25 00:12:39;;;;;;;4.72;2.38;;;12.50;99.90;;;;;;5013236;28;20048;-82
2023/10/25 00:15:05;;;;;;;5.75;2.00;;;12.40;99.90;;;;;;4995380;28;20036;-82
2023/10/25 00:17:31;;;;;;;8.52;2.45;;;12.40;99.90;;;;;;4995744;28;20026;-82
2023/10/25 00:19:56;;;;;;;5.97;2.20;;;12.40;99.90;;;;;;5012859;28;20057;-82
2023/10/25 00:22:22;;;;;;;7.50;2.40;;;12.40;99.90;;;;;;5012070;28;20097;-82
2023/10/25 00:24:48;;;;;;;5.95;2.10;;;12.40;99.90;;;;;;5012342;28;20040;-82
2023/10/25 00:27:13;;;;;;;6.10;2.25;;;12.40;99.90;;;;;;5011620;28;20026;-81
2023/10/25 00:29:39;;;;;;;6.82;2.47;;;12.40;99.90;;;;;;5012937;28;20482;-81
2023/10/25 00:32:05;;;;;;;5.72;2.20;;;12.40;99.90;;;;;;5013175;28;20397;-81
2023/10/25 00:34:31;;;;;;;5.13;2.00;;;12.40;99.90;;;;;;5012062;28;20029;-81
2023/10/25 00:36:57;;;;;;;4.07;2.08;;;12.50;99.90;;;;;;5012552;28;20462;-81
2023/10/25 00:39:23;;;;;;;5.80;2.08;;;12.50;99.90;;;;;;5011827;28;20109;-81
2023/10/25 00:41:48;;;;;;;6.93;2.55;;;12.50;99.90;;;;;;5011755;28;20037;-81
2023/10/25 00:44:14;;;;;;;6.45;2.22;;;12.50;99.90;;;;;;5011399;28;20180;-81
2023/10/25 00:46:40;;;;;;;6.53;1.98;;;12.50;99.90;;;;;;5011837;28;20389;-81
2023/10/25 00:49:07;;;;;;;4.10;2.05;;;12.50;99.90;;;;;;5012080;28;20037;-82
2023/10/25 00:51:34;;;;;;;5.75;2.00;;;12.50;99.90;;;;;;5015093;28;20578;-82
2023/10/25 00:54:02;;;;;;;5.25;2.10;;;12.50;99.90;;;;;;5016278;28;20492;-81
2023/10/25 00:56:30;;;;;;;6.50;2.65;;;12.60;99.90;;;;;;5016667;28;20474;-82
2023/10/25 00:58:56;;;;;;;5.57;2.58;;;12.60;99.90;;;;;;5016509;28;20155;-82
2023/10/25 01:01:23;;;;;;;5.35;2.35;;;12.50;99.90;;;;;;5015075;28;20041;-82
2023/10/25 01:03:49;;;;;;;7.78;2.67;;;12.50;99.90;;;;;;4999285;28;20464;-82
2023/10/25 01:06:16;;;;;;;4.20;1.90;;;12.50;99.90;;;;;;5014676;28;20113;-82
2023/10/25 01:08:42;;;;;;;4.13;1.70;;;12.50;99.90;;;;;;5014965;28;20505;-82
2023/10/25 01:11:08;;;;;;;6.70;1.77;;;12.50;99.90;;;;;;5016519;28;20046;-82
2023/10/25 01:13:34;;;;;;;9.18;1.80;;;12.50;99.90;;;;;;5014916;28;20041;-82
2023/10/25 01:15:59;;;;;;;3.53;1.80;;;12.60;99.90;;;;;;5016041;28;20030;-82
2023/10/25 01:18:25;;;;;;;4.10;1.75;;;12.60;99.90;;;;;;5015504;28;20512;-82
2023/10/25 01:20:51;;;;;;;5.68;1.27;;;12.60;99.90;;;;;;5014874;28;20387;-82
2023/10/25 01:23:16;;;;;;;4.75;1.98;;;12.70;99.90;;;;;;5016242;28;20520;-82
2023/10/25 01:25:43;;;;;;;4.75;1.60;;;12.70;99.90;;;;;;5014798;28;20065;-81
2023/10/25 01:28:10;;;;;;;8.00;1.92;;;12.70;99.90;;;;;;5015561;28;20034;-82
2023/10/25 01:30:36;;;;;;;5.05;1.50;;;12.70;99.90;;;;;;4998686;28;20444;-82
2023/10/25 01:33:01;;;;;;;7.53;1.73;;;12.70;99.90;;;;;;5016039;28;20110;-80
2023/10/25 01:35:27;;;;;;;5.88;1.30;;;12.70;99.90;;;;;;5015950;28;20030;-81
2023/10/25 01:37:54;;;;;;;4.35;1.30;;;12.70;99.90;;;;;;5015273;28;20388;-82
2023/10/25 01:40:19;;;;;;;9.15;2.00;;;12.80;99.90;;;;;;5015653;28;20083;-82
2023/10/25 01:42:45;;;;;;;5.18;1.60;;;12.80;99.90;;;;;;5014105;28;20478;-82
2023/10/25 01:45:12;;;;;;;5.97;1.45;;;12.80;99.90;;;;;;5014280;28;20032;-82
2023/10/25 01:47:41;;;;;;;5.43;1.75;;;12.80;99.90;;;;;;5015285;28;20359;-82
2023/10/25 01:50:07;;;;;;;5.28;1.80;;;12.80;99.90;;;;;;4998229;28;20363;-83
2023/10/25 01:52:33;;;;;;;5.82;1.90;;;12.80;99.90;;;;;;5014304;28;20123;-82
2023/10/25 01:54:59;;;;;;;4.13;1.63;;;12.70;99.90;;;;;;5014156;28;20030;-82
2023/10/25 01:57:25;;;;;;;5.53;1.75;;;12.70;99.90;;;;;;5015461;28;20454;-82
2023/10/25 01:59:50;;;;;;;4.53;1.90;;;12.70;99.90;;;;;;5015406;28;20030;-82
2023/10/25 02:02:16;;;;;;;7.70;1.85;;;12.70;99.90;;;;;;5014743;28;20034;-82
2023/10/25 02:04:42;;;;;;;3.67;1.33;;;12.70;99.90;;;;;;5015344;28;20030;-82
2023/10/25 02:07:07;;;;;;;6.05;1.85;;;12.70;99.90;;;;;;5014663;28;20045;-82
2023/10/25 02:09:33;;;;;;;4.85;1.58;;;12.70;99.90;;;;;;5014140;28;20424;-82
2023/10/25 02:11:59;;;;;;;6.97;1.73;;;12.70;99.90;;;;;;5014289;28;20034;-82
2023/10/25 02:14:25;;;;;;;7.47;2.22;;;12.80;99.90;;;;;;5013733;28;20026;-82
2023/10/25 02:16:50;;;;;;;4.82;2.00;;;12.80;99.90;;;;;;5014895;28;20157;-82
2023/10/25 02:19:17;;;;;;;6.90;2.25;;;12.70;99.90;;;;;;5014650;28;20121;-81
2023/10/25 02:21:42;;;;;;;4.53;1.80;;;12.70;99.90;;;;;;5014841;28;20038;-81
2023/10/25 02:24:10;;;;;;;5.35;2.17;;;12.70;99.90;;;;;;5015040;28;20374;-81
2023/10/25 02:26:36;;;;;;;4.07;1.55;;;12.70;99.90;;;;;;5014753;28;20026;-82
2023/10/25 02:29:02;;;;;;;6.40;1.60;;;12.70;99.90;;;;;;5013103;28;20022;-82
2023/10/25 02:31:28;;;;;;;4.43;1.75;;;12.70;99.90;;;;;;5014682;28;20034;-82
2023/10/25 02:33:54;;;;;;;5.05;1.45;;;12.70;99.90;;;;;;5014890;28;20037;-82
2023/10/25 02:36:19;;;;;;;4.50;1.40;;;12.80;99.90;;;;;;5013100;28;20318;-82
2023/10/25 02:38:48;;;;;;;5.03;1.67;;;12.70;99.90;;;;;;5013301;28;20026;-81
2023/10/25 02:41:14;;;;;;;5.88;1.95;;;12.70;99.90;;;;;;5013125;28;20545;-81
2023/10/25 02:43:40;;;;;;;8.50;1.80;;;12.70;99.90;;;;;;5014662;28;20116;-82
2023/10/25 02:46:08;;;;;;;5.97;1.65;;;12.80;99.90;;;;;;5013651;28;20382;-82
2023/10/25 02:48:34;;;;;;;3.65;1.42;;;12.80;99.90;;;;;;5013180;28;20546;-82
2023/10/25 02:51:00;;;;;;;4.55;1.38;;;12.80;99.90;;;;;;5014287;28;20128;-82
2023/10/25 02:53:26;;;;;;;5.32;1.40;;;12.80;99.90;;;;;;5012753;28;20447;-82
2023/10/25 02:55:58;;;;;;;7.28;1.90;;;12.80;99.90;;;;;;5014474;28;20423;-81
2023/10/25 02:58:24;;;;;;;7.03;1.83;;;12.70;99.90;;;;;;5014437;28;20080;-81
2023/10/25 03:00:50;;;;;;;4.82;1.60;;;12.70;99.90;;;;;;5012860;28;20493;-82
2023/10/25 03:03:15;;;;;;;5.93;1.55;;;12.50;99.90;;;;;;5013077;28;20062;-82
2023/10/25 03:05:41;;;;;;;4.03;1.38;;;12.40;99.90;;;;;;5013719;28;20032;-81
2023/10/25 03:08:06;;;;;;;5.15;1.33;;;12.50;99.90;;;;;;5012422;28;20109;-81
2023/10/25 03:10:32;;;;;;;2.53;0.75;;;12.50;99.90;;;;;;5014167;28;20034;-82
2023/10/25 03:12:59;;;;;;;5.22;1.17;;;12.50;99.90;;;;;;4996374;28;20382;-82
2023/10/25 03:15:25;;;;;;;6.05;1.60;;;12.50;99.90;;;;;;5013412;28;20033;-82
2023/10/25 03:17:51;;;;;;;4.22;1.80;;;12.60;99.90;;;;;;5014004;28;20025;-82
2023/10/25 03:20:17;;;;;;;3.90;1.00;;;12.60;99.90;;;;;;5012524;28;20054;-83
2023/10/25 03:22:42;;;;;;;6.05;1.75;;;12.60;99.90;;;;;;5012614;28;20117;-82
2023/10/25 03:25:08;;;;;;;6.00;2.28;;;12.70;99.90;;;;;;5013532;28;20132;-83
2023/10/25 03:27:34;;;;;;;6.70;1.92;;;12.70;99.90;;;;;;5012640;28;20033;-83
2023/10/25 03:30:00;;;;;;;2.72;1.30;;;12.70;99.90;;;;;;5014207;28;20458;-82
2023/10/25 03:32:25;;;;;;;4.15;1.23;;;12.70;99.90;;;;;;5014036;28;20033;-82
2023/10/25 03:34:51;;;;;;;4.60;1.92;;;12.60;99.90;;;;;;5012304;28;20034;-82
2023/10/25 03:37:17;;;;;;;5.90;2.08;;;12.60;99.90;;;;;;5013241;28;20029;-82
2023/10/25 03:39:43;;;;;;;5.10;1.70;;;12.60;99.90;;;;;;5013535;28;20022;-82
2023/10/25 03:42:09;;;;;;;3.63;1.75;;;12.60;99.90;;;;;;5013517;28;20045;-82
2023/10/25 03:44:34;;;;;;;6.47;2.28;;;12.60;99.90;;;;;;4995910;28;20034;-82
2023/10/25 03:47:00;;;;;;;4.18;1.60;;;12.60;99.90;;;;;;4995840;28;20026;-81
2023/10/25 03:49:26;;;;;;;9.70;2.05;;;12.50;99.90;;;;;;5012572;28;20026;-82
2023/10/25 03:51:52;;;;;;;3.63;1.25;;;12.60;99.90;;;;;;5011923;28;20401;-82
2023/10/25 03:54:18;;;;;;;5.93;1.50;;;12.50;99.90;;;;;;5012509;28;20030;-82
2023/10/25 03:56:43;;;;;;;7.35;2.45;;;12.50;99.90;;;;;;5013358;28;20038;-82
2023/10/25 03:59:09;;;;;;;4.65;1.70;;;12.50;99.90;;;;;;5013339;28;20402;-82
2023/10/25 04:01:35;;;;;;;6.07;2.20;;;12.50;99.90;;;;;;5013236;28;20382;-82
2023/10/25 04:04:01;;;;;;;4.57;1.88;;;12.40;99.90;;;;;;5013207;28;20114;-82
2023/10/25 04:06:26;;;;;;;5.43;2.00;;;12.40;99.90;;;;;;5011348;28;20038;-82
2023/10/25 04:08:52;;;;;;;5.47;2.47;;;12.40;99.90;;;;;;5013418;28;20038;-82
2023/10/25 04:11:17;;;;;;;3.50;1.90;;;12.40;99.90;;;;;;4996025;28;20501;-82
2023/10/25 04:13:43;;;;;;;4.57;1.92;;;12.40;99.90;;;;;;5012297;28;20393;-82
2023/10/25 04:16:09;;;;;;;7.57;2.35;;;12.30;99.90;;;;;;5011813;28;20034;-82
2023/10/25 04:18:36;;;;;;;4.50;1.88;;;12.20;99.90;;;;;;5013121;28;20104;-82
2023/10/25 04:21:03;;;;;;;10.02;2.50;;;12.20;99.90;;;;;;5011871;28;20041;-82
2023/10/25 04:23:30;;;;;;;9.60;3.17;;;12.20;99.90;;;;;;5013121;28;20033;-81
2023/10/25 04:26:07;;;;;;;3.85;1.80;;;12.10;99.90;;;;;;5014373;28;20088;-82
2023/10/25 04:28:34;;;;;;;11.73;2.92;;;12.00;99.90;;;;;;5015583;28;20026;-82
2023/10/25 04:31:00;;;;;;;5.80;2.33;;;12.00;99.90;;;;;;5017059;28;20069;-82
2023/10/25 04:33:26;;;;;;;8.30;2.72;;;11.90;99.90;;;;;;5017002;28;20104;-82
2023/10/25 04:35:52;;;;;;;6.13;2.28;;;11.90;99.90;;;;;;4999277;28;20030;-82
2023/10/25 04:38:17;;;;;;;5.43;2.15;;;11.90;99.90;;;;;;5015181;28;20033;-82
2023/10/25 04:40:43;;;;;;;6.47;1.95;;;11.90;99.90;;;;;;5016461;28;20395;-81
2023/10/25 04:43:08;;;;;;;8.85;2.80;;;11.90;99.90;;;;;;5016736;28;20117;-82
2023/10/25 04:45:35;;;;;;;7.70;2.53;;;11.90;99.90;;;;;;5015635;28;20030;-82
2023/10/25 04:48:00;;;;;;;12.32;2.63;;;11.90;99.90;;;;;;5016463;28;20038;-82
2023/10/25 04:50:26;;;;;;;6.68;2.35;;;11.80;99.90;;;;;;5015155;28;20030;-82
2023/10/25 04:52:52;;;;;;;10.98;2.85;;;11.80;99.90;;;;;;5016319;28;20034;-82
2023/10/25 04:55:18;;;;;;;4.55;1.98;;;11.80;99.90;;;;;;5016653;28;20034;-81
2023/10/25 04:57:43;;;;;;;7.13;2.47;;;11.90;99.90;;;;;;5015154;28;20482;-81
2023/10/25 05:00:10;;;;;;;10.13;2.50;;;11.90;99.90;;;;;;5016436;28;20038;-82
2023/10/25 05:02:39;;;;;;;5.80;2.25;;;11.90;99.90;;;;;;5015915;28;20034;-81
2023/10/25 05:05:06;;;;;;;6.40;2.47;;;11.90;99.90;;;;;;5016119;28;20029;-82
2023/10/25 05:07:33;;;;;;;10.13;3.17;;;11.90;99.90;;;;;;4998659;28;20457;-82
2023/10/25 07:32:28;;;;;;;10.85;2.70;;;11.80;99.90;;;;;;4858928;29;20068;-83
2023/10/25 07:34:54;;;;;;;6.40;2.72;;;11.90;99.90;;;;;;4844499;29;20082;-82
2023/10/25 07:37:20;;;;;;;4.85;2.70;;;11.90;99.90;;;;;;4861883;29;20061;-82
2023/10/25 07:39:45;;;;;;;10.05;2.30;;;12.00;99.90;;;;;;4860889;29;20036;-84
2023/10/25 07:42:11;;;;;;;6.63;3.42;;;12.00;99.90;;;;;;4861249;29;20049;-82
2023/10/25 07:44:37;;;;;;;6.75;3.08;;;12.00;99.90;;;;;;4860930;29;20044;-84
2023/10/25 07:47:03;;;;;;;9.25;2.75;;;12.00;99.90;;;;;;4844965;29;20040;-84
2023/10/25 07:49:32;;;;;;;6.13;2.85;;;12.10;99.90;;;;;;4844492;29;20051;-84
2023/10/25 07:51:58;;;;;;;6.80;2.70;;;12.10;99.90;;;;;;4859833;29;20037;-84
2023/10/25 07:54:24;;;;;;;6.18;3.05;;;12.10;99.90;;;;;;4844270;29;20089;-84
2023/10/25 07:56:50;;;;;;;6.40;2.45;;;12.10;99.90;;;;;;4860879;29;20106;-85
2023/10/25 07:59:15;;;;;;;6.43;2.80;;;12.10;99.90;;;;;;4861174;29;20458;-84
2023/10/25 08:01:41;;;;;;;5.57;2.67;;;12.00;99.90;;;;;;4831403;29;20049;-84
2023/10/25 08:04:07;;;;;;;6.18;3.38;;;12.10;99.90;;;;;;4865276;29;20085;-84
2023/10/25 08:06:34;;;;;;;6.28;2.78;;;12.10;99.90;;;;;;4864934;29;20037;-84
2023/10/25 08:08:59;;;;;;;7.15;3.05;;;12.10;99.90;;;;;;4864481;29;20168;-84
2023/10/25 08:11:25;;;;;;;5.25;2.88;;;12.00;99.90;;;;;;4865134;29;20061;-80
2023/10/25 08:13:54;;;;;;;5.68;2.65;;;12.00;99.90;;;;;;4868639;29;20030;-79
2023/10/25 08:18:55;;;;;;;6.55;2.85;;;12.00;99.90;;;;;;5048380;23;20050;-80
2023/10/25 08:21:21;;;;;;;7.07;2.60;;;12.10;99.90;;;;;;4869494;29;20140;-84
2023/10/25 08:23:51;;;;;;;9.15;4.13;;;12.10;99.90;;;;;;4873871;29;20043;-83
2023/10/25 08:26:18;;;;;;;10.23;3.50;;;12.10;99.90;;;;;;4882773;29;20394;-84
2023/10/25 08:28:43;;;;;;;8.10;2.78;;;12.10;99.90;;;;;;4882860;29;20032;-83
2023/10/25 08:31:11;;;;;;;8.60;3.30;;;12.10;99.90;;;;;;4865719;29;20136;-83
2023/10/25 08:33:36;;;;;;;5.72;3.03;;;12.20;99.90;;;;;;4865915;29;20037;-83
2023/10/25 08:36:03;;;;;;;9.32;3.17;;;12.20;99.90;;;;;;4882057;29;20051;-83
2023/10/25 08:38:29;;;;;;;7.15;2.95;;;12.20;99.90;;;;;;4882140;29;20059;-84
2023/10/25 08:41:05;;;;;;;9.45;3.20;;;12.10;99.90;;;;;;4865355;29;20048;-83
2023/10/25 08:43:33;;;;;;;10.85;3.00;;;12.00;99.90;;;;;;4881991;29;20029;-84
2023/10/25 08:45:58;;;;;;;6.93;3.17;;;12.00;99.90;;;;;;4882077;29;20021;-84
2023/10/25 08:48:27;;;;;;;5.28;2.60;;;12.00;99.90;;;;;;4881504;29;20073;-84
2023/10/25 08:50:55;;;;;;;5.72;2.42;;;12.10;99.90;;;;;;4881780;29;20109;-83
2023/10/25 08:53:30;;;;;;;10.27;3.80;;;12.20;99.90;;;;;;4882250;29;20034;-83
2023/10/25 08:55:57;;;;;;;6.57;2.90;;;12.10;99.90;;;;;;4865873;29;20076;-84
2023/10/25 08:58:24;;;;;;;7.00;2.63;;;12.10;99.90;;;;;;4882096;29;20116;-84
2023/10/25 09:00:51;;;;;;;5.82;2.28;;;12.10;99.90;;;;;;4865592;29;20389;-83
2023/10/25 09:03:32;;;;;;;5.63;2.40;;;12.20;99.90;;;;;;4865497;29;20029;-83
2023/10/25 09:05:59;;;;;;;7.57;3.03;;;12.20;99.90;;;;;;4881945;29;20060;-85
2023/10/25 09:08:25;;;;;;;8.50;3.20;;;12.30;99.90;;;;;;4865507;29;20582;-84
2023/10/25 09:10:57;;;;;;;6.72;2.53;;;12.30;99.90;;;;;;4881914;29;20071;-84
2023/10/25 09:13:24;;;;;;;5.93;2.87;;;12.20;99.90;;;;;;4850066;29;20033;-83
2023/10/25 09:15:50;;;;;;;4.88;2.53;;;12.30;99.90;;;;;;4865716;29;20033;-84
2023/10/25 09:18:16;;;;;;;6.82;2.95;;;12.20;99.90;;;;;;4881343;29;20129;-83
2023/10/25 09:20:48;;;;;;;8.80;3.17;;;12.20;99.90;;;;;;4865107;29;20607;-83
2023/10/25 09:23:15;;;;;;;6.03;2.80;;;12.10;99.90;;;;;;4882313;29;20025;-83
2023/10/25 09:25:40;;;;;;;7.05;2.55;;;12.10;99.90;;;;;;4865443;29;20041;-83
2023/10/25 09:28:32;;;;;;;6.30;2.78;;;12.20;99.90;;;;;;4881740;29;20030;-81
2023/10/25 09:31:02;;;;;;;7.88;3.10;;;12.30;99.90;;;;;;4881768;29;20092;-83
2023/10/25 09:33:29;;;;;;;5.85;3.38;;;12.30;99.90;;;;;;4864772;29;20040;-83
2023/10/25 09:35:56;;;;;;;8.73;3.08;;;12.30;99.90;;;;;;4864623;29;20057;-82
2023/10/25 09:38:22;;;;;;;5.95;2.88;;;12.30;99.90;;;;;;4865301;29;20116;-82
2023/10/25 09:40:51;;;;;;;6.60;2.80;;;12.30;99.90;;;;;;4881407;29;20090;-82
2023/10/25 09:43:24;;;;;;;7.47;3.50;;;12.40;99.90;;;;;;4881426;29;20040;-82
2023/10/25 09:45:54;;;;;;;5.18;3.20;;;12.30;99.90;;;;;;4864265;29;20058;-82
2023/10/25 09:48:21;;;;;;;6.35;2.60;;;12.30;99.90;;;;;;4880763;29;20068;-80
2023/10/25 09:50:52;;;;;;;6.70;3.00;;;12.40;99.90;;;;;;4864433;29;20041;-82
2023/10/25 09:53:30;;;;;;;7.65;3.63;;;12.40;99.90;;;;;;4881262;29;20064;-83
2023/10/25 09:56:02;;;;;;;7.55;3.55;;;12.40;99.90;;;;;;4864251;29;20128;-82
2023/10/25 09:58:32;;;;;;;5.38;3.38;;;12.40;99.90;;;;;;4881107;29;20482;-83
2023/10/25 10:00:59;;;;;;;6.72;3.30;;;12.30;99.90;;;;;;4864231;29;20045;-83
2023/10/25 10:03:37;;;;;;;5.70;3.40;;;12.40;99.90;;;;;;4848960;29;20029;-83
2023/10/25 10:06:20;;;;;;;7.22;3.35;;;12.40;99.90;;;;;;4880886;29;20044;-83
2023/10/25 10:09:16;;;;;;;8.75;4.28;;;12.40;99.90;;;;;;4881144;29;20052;-83
2023/10/25 10:11:48;;;;;;;9.23;3.53;;;12.40;99.90;;;;;;4864163;29;20037;-82
2023/10/25 10:14:32;;;;;;;8.80;3.40;;;12.30;99.90;;;;;;4864316;29;20085;-83
2023/10/25 10:17:09;;;;;;;5.45;3.55;;;12.40;99.90;;;;;;4881545;29;20029;-83
2023/10/25 10:19:40;;;;;;;8.98;3.72;;;12.40;99.90;;;;;;4899538;29;20047;-82
2023/10/25 10:22:13;;;;;;;8.27;3.60;;;12.40;99.90;;;;;;4906357;29;20135;-82
2023/10/25 10:24:50;;;;;;;8.65;3.70;;;12.40;99.90;;;;;;4899757;29;20032;-78
2023/10/25 10:27:23;;;;;;;9.15;4.20;;;12.50;99.90;;;;;;4900358;29;20036;-76
2023/10/25 10:29:49;;;;;;;10.02;3.90;;;12.50;99.90;;;;;;4914726;29;20032;-79
2023/10/25 10:32:16;;;;;;;6.80;3.63;;;12.40;99.90;;;;;;4901226;29;20024;-86
2023/10/25 10:34:52;;;;;;;4.82;2.20;;;12.30;99.90;;;;;;4902025;29;20040;-83
2023/10/25 10:37:21;;;;;;;8.63;3.65;;;12.40;99.90;;;;;;4917731;29;20102;-82
2023/10/25 10:39:56;;;;;;;9.27;5.00;;;12.40;99.90;;;;;;4900766;29;20028;-86
2023/10/25 10:42:34;;;;;;;7.85;3.78;;;12.40;99.90;;;;;;4916330;29;20036;-84
2023/10/25 10:45:05;;;;;;;8.95;3.60;;;12.40;99.90;;;;;;4927995;29;20036;-86
2023/10/25 10:47:41;;;;;;;7.00;3.20;;;12.50;99.90;;;;;;4931733;29;20354;-85
2023/10/25 10:50:10;;;;;;;8.05;3.67;;;12.50;99.90;;;;;;4916765;29;20164;-85
2023/10/25 10:52:37;;;;;;;10.35;3.70;;;12.50;99.90;;;;;;4916107;29;20024;-81
2023/10/25 10:55:03;;;;;;;9.02;3.25;;;12.50;99.90;;;;;;4896746;29;20032;-84
2023/10/25 10:57:30;;;;;;;9.00;3.50;;;12.50;99.90;;;;;;4877850;29;20036;-84
2023/10/25 10:59:56;;;;;;;8.07;3.30;;;12.50;99.90;;;;;;4917279;29;20477;-81
2023/10/25 11:02:22;;;;;;;11.80;4.25;;;12.50;99.90;;;;;;4880071;29;20120;-82
2023/10/25 11:04:47;;;;;;;8.55;3.25;;;12.40;99.90;;;;;;4917077;29;20035;-85
2023/10/25 11:07:13;;;;;;;8.10;3.22;;;12.40;99.90;;;;;;4917064;29;20036;-85
2023/10/25 11:09:39;;;;;;;8.27;3.10;;;12.30;99.90;;;;;;4900816;29;20480;-86
2023/10/25 11:12:10;;;;;;;8.40;3.25;;;12.40;99.90;;;;;;4901188;29;20044;-82
2023/10/25 11:14:45;;;;;;;8.15;2.83;;;12.40;99.90;;;;;;4901339;29;20036;-88
2023/10/25 11:17:12;;;;;;;7.78;2.85;;;12.40;99.90;;;;;;4884279;29;20070;-88
2023/10/25 11:19:38;;;;;;;8.43;2.40;;;12.50;99.90;;;;;;4882379;29;20494;-88
2023/10/25 11:22:03;;;;;;;7.57;2.67;;;12.50;99.90;;;;;;4898777;29;20435;-86
2023/10/25 11:24:30;;;;;;;42.97;10.60;;;12.50;99.90;;;;;;4898008;29;20028;-86
2023/10/25 11:26:56;;;;;;;12.20;3.65;;;12.50;99.90;;;;;;4884115;29;20088;-88
2023/10/25 11:29:25;;;;;;;6.45;2.53;;;12.50;99.90;;;;;;4899657;29;20108;-87
2023/10/25 11:31:55;;;;;;;16.27;3.90;;;12.50;99.90;;;;;;4884121;29;20044;-88
2023/10/25 11:34:21;;;;;;;9.52;2.70;;;12.40;99.90;;;;;;4866006;29;20025;-87
2023/10/25 11:36:47;;;;;;;10.38;2.97;;;12.40;99.90;;;;;;4898706;29;20543;-87
2023/10/25 11:39:13;;;;;;;7.65;2.85;;;12.40;99.90;;;;;;4899007;29;20028;-86
2023/10/25 11:41:39;;;;;;;10.43;3.90;;;12.40;99.90;;;;;;4897911;29;20088;-84
2023/10/25 11:44:06;;;;;;;7.47;2.92;;;12.40;99.90;;;;;;4881266;29;20500;-84
2023/10/25 11:46:37;;;;;;;8.10;2.60;;;12.40;99.90;;;;;;4895467;29;20111;-83
2023/10/25 11:49:04;;;;;;;7.25;2.70;;;12.30;99.90;;;;;;4858163;29;20025;-83
2023/10/25 11:51:34;;;;;;;19.08;5.95;;;12.20;99.90;;;;;;4896700;29;20037;-84
2023/10/25 11:54:04;;;;;;;11.25;3.28;;;12.20;99.90;;;;;;4898720;29;20104;-81
2023/10/25 11:56:30;;;;;;;8.63;3.20;;;12.20;99.90;;;;;;4898894;29;20064;-83
2023/10/25 11:58:56;;;;;;;14.48;3.40;;;12.30;99.90;;;;;;4899499;29;20035;-85
2023/10/25 12:01:22;;;;;;;8.48;3.08;;;12.30;99.90;;;;;;4882415;29;20135;-85
2023/10/25 12:03:47;;;;;;;11.20;3.28;;;12.40;99.90;;;;;;4866048;29;20064;-84
2023/10/25 12:06:13;;;;;;;10.00;3.00;;;12.30;99.90;;;;;;4897774;29;20458;-84
2023/10/25 12:08:40;;;;;;;7.00;2.90;;;12.30;99.90;;;;;;4881706;29;20493;-84
2023/10/25 12:11:10;;;;;;;7.97;3.00;;;12.30;99.90;;;;;;4897132;29;20540;-84
2023/10/25 12:13:39;;;;;;;7.43;2.67;;;12.30;99.90;;;;;;4896312;29;20148;-86
2023/10/25 12:16:11;;;;;;;6.22;2.55;;;12.30;99.90;;;;;;4897268;29;20075;-85
2023/10/25 12:18:37;;;;;;;13.48;3.47;;;12.40;99.90;;;;;;4896630;29;20057;-88
2023/10/25 12:21:04;;;;;;;8.20;3.13;;;12.40;99.90;;;;;;4879447;29;20041;-89
2023/10/25 12:23:30;;;;;;;6.43;2.55;;;12.40;99.90;;;;;;4898250;29;20028;-87
2023/10/25 12:25:56;;;;;;;5.63;1.92;;;12.40;99.90;;;;;;4880340;29;20044;-88
2023/10/25 12:28:23;;;;;;;10.43;2.45;;;12.40;99.90;;;;;;4897201;29;20037;-81
2023/10/25 12:30:49;;;;;;;11.60;3.22;;;12.20;99.90;;;;;;4881229;29;20505;-86
2023/10/25 12:33:14;;;;;;;3.78;2.03;;;12.10;99.90;;;;;;4897759;29;20036;-85
2023/10/25 12:35:41;;;;;;;7.80;2.80;;;12.20;99.90;;;;;;4882985;29;20072;-87
2023/10/25 12:38:07;;;;;;;6.78;2.42;;;12.20;99.90;;;;;;4882329;29;20029;-86
2023/10/25 12:40:33;;;;;;;6.82;2.30;;;12.20;99.90;;;;;;4881566;29;20143;-87
2023/10/25 12:42:59;;;;;;;9.07;1.92;;;12.20;99.90;;;;;;4897770;29;20062;-87
2023/10/25 12:45:24;;;;;;;6.20;2.75;;;12.20;99.90;;;;;;4865963;29;20215;-86
2023/10/25 12:47:50;;;;;;;10.05;2.70;;;12.10;99.90;;;;;;4898542;29;20112;-87
2023/10/25 12:50:16;;;;;;;6.53;2.38;;;12.10;99.90;;;;;;4884702;29;20180;-88
2023/10/25 12:52:42;;;;;;;6.20;2.33;;;12.10;99.90;;;;;;4884194;29;20036;-81
2023/10/25 12:55:11;;;;;;;8.35;2.67;;;12.00;99.90;;;;;;4900446;29;20223;-88
2023/10/25 12:57:37;;;;;;;5.28;2.83;;;12.00;99.90;;;;;;4899485;29;20116;-90
2023/10/25 13:00:05;;;;;;;9.20;2.58;;;12.00;99.90;;;;;;4903787;29;20033;-90
2023/10/25 13:02:31;;;;;;;5.93;2.65;;;12.10;99.90;;;;;;4885892;29;20072;-90
2023/10/25 13:04:57;;;;;;;9.73;3.40;;;12.20;99.90;;;;;;4884868;29;20032;-85
2023/10/25 13:07:23;;;;;;;5.97;3.30;;;12.20;99.90;;;;;;4897067;29;20043;-83
2023/10/25 13:09:49;;;;;;;9.48;3.40;;;12.30;99.90;;;;;;4885029;29;20405;-86
2023/10/25 13:12:14;;;;;;;6.40;2.75;;;12.30;99.90;;;;;;4901578;29;20044;-82
2023/10/25 13:14:40;;;;;;;7.07;2.95;;;12.30;99.90;;;;;;4900075;29;20029;-90
2023/10/25 13:17:06;;;;;;;6.68;3.10;;;12.40;99.90;;;;;;4899825;29;20033;-84
2023/10/25 13:19:33;;;;;;;8.45;3.08;;;12.40;99.90;;;;;;4900772;29;20048;-87
2023/10/25 13:21:58;;;;;;;3.75;2.45;;;12.40;99.90;;;;;;4902537;29;20485;-86
2023/10/25 13:24:24;;;;;;;4.38;2.45;;;12.40;99.90;;;;;;4918970;29;20035;-85
2023/10/25 13:26:50;;;;;;;6.20;2.42;;;12.40;99.90;;;;;;4903506;29;20060;-86
2023/10/25 13:29:16;;;;;;;4.63;2.13;;;12.40;99.90;;;;;;4905122;29;20056;-87
2023/10/25 13:31:41;;;;;;;4.10;2.20;;;12.30;99.90;;;;;;4905290;29;20043;-86
2023/10/25 13:34:07;;;;;;;4.90;2.28;;;12.30;99.90;;;;;;4920938;29;20073;-87
2023/10/25 13:36:33;;;;;;;3.75;1.83;;;12.30;99.90;;;;;;4903352;29;20070;-88
2023/10/25 13:38:58;;;;;;;4.10;1.88;;;12.20;99.90;;;;;;4920162;29;20527;-84
2023/10/25 13:41:24;;;;;;;3.95;1.55;;;12.20;99.90;;;;;;4920472;29;20040;-86
2023/10/25 13:43:50;;;;;;;3.92;2.25;;;12.20;99.90;;;;;;4903753;29;20080;-86
2023/10/25 13:46:16;;;;;;;4.55;2.10;;;12.20;99.90;;;;;;4901842;29;20485;-87
2023/10/25 13:48:43;;;;;;;5.40;2.47;;;12.30;99.90;;;;;;4919283;29;20040;-86
2023/10/25 13:51:09;;;;;;;5.85;2.15;;;12.30;99.90;;;;;;4905656;29;20042;-86
2023/10/25 13:53:35;;;;;;;5.38;2.30;;;12.20;99.90;;;;;;4919781;29;20032;-85
2023/10/25 13:56:02;;;;;;;4.25;1.80;;;12.20;99.90;;;;;;4921044;29;20079;-85
2023/10/25 13:58:30;;;;;;;3.65;1.65;;;12.30;99.90;;;;;;4901439;29;20128;-82
2023/10/25 14:00:56;;;;;;;3.75;1.92;;;12.30;99.90;;;;;;4918967;29;20436;-81
2023/10/25 14:03:24;;;;;;;5.25;2.60;;;12.40;99.90;;;;;;4921140;29;20036;-81
2023/10/25 14:05:50;;;;;;;2.75;1.65;;;12.30;99.90;;;;;;4919617;29;20032;-82
2023/10/25 14:08:17;;;;;;;2.58;1.27;;;12.30;99.90;;;;;;4903201;29;20038;-79
2023/10/25 14:10:46;;;;;;;9.40;1.75;;;12.30;99.90;;;;;;4902364;29;20083;-87
2023/10/25 14:13:13;;;;;;;5.47;1.48;;;12.30;99.90;;;;;;4918847;29;20400;-80
2023/10/25 14:15:43;;;;;;;2.55;1.52;;;12.30;99.90;;;;;;4918359;29;20056;-79
2023/10/25 14:18:11;;;;;;;3.78;1.58;;;12.40;99.90;;;;;;4908813;29;20489;-81
2023/10/25 14:20:40;;;;;;;3.05;1.50;;;12.40;99.90;;;;;;4899462;29;20551;-78
2023/10/25 14:23:07;;;;;;;3.72;1.20;;;12.30;99.90;;;;;;4882311;29;20044;-79
2023/10/25 14:25:38;;;;;;;4.13;1.83;;;12.40;99.90;;;;;;4898962;29;20437;-80
2023/10/25 14:28:06;;;;;;;4.50;1.42;;;12.40;99.90;;;;;;4882508;29;20060;-81
2023/10/25 14:30:41;;;;;;;3.95;1.80;;;12.30;99.90;;;;;;4882517;29;20092;-79
2023/10/25 14:33:08;;;;;;;2.17;1.35;;;12.40;99.90;;;;;;4898600;29;20092;-80
2023/10/25 14:35:35;;;;;;;2.15;1.48;;;12.40;99.90;;;;;;4863454;29;20040;-80
2023/10/25 14:38:01;;;;;;;4.55;1.60;;;12.40;99.90;;;;;;4880380;29;20108;-78
2023/10/25 14:40:27;;;;;;;3.50;1.60;;;12.40;99.90;;;;;;4894736;29;20036;-80
2023/10/25 14:42:53;;;;;;;6.63;1.83;;;12.40;99.90;;;;;;4898833;29;20045;-79
2023/10/25 14:45:18;;;;;;;4.70;1.25;;;12.40;99.90;;;;;;4898277;29;20192;-80
2023/10/25 14:47:44;;;;;;;4.72;1.60;;;12.40;99.90;;;;;;4894277;29;20040;-85
2023/10/25 14:50:10;;;;;;;5.15;1.42;;;12.40;99.90;;;;;;4836004;29;20474;-88
2023/10/25 14:52:35;;;;;;;6.40;2.13;;;12.40;99.90;;;;;;4855954;29;20067;-85
2023/10/25 14:55:01;;;;;;;3.75;2.15;;;12.30;99.90;;;;;;4884620;29;20048;-84
2023/10/25 14:57:27;;;;;;;3.63;1.65;;;12.20;99.90;;;;;;4900655;29;20104;-85
2023/10/25 14:59:52;;;;;;;5.65;1.92;;;12.30;99.90;;;;;;4884279;29;20032;-83
2023/10/25 15:02:18;;;;;;;3.30;1.80;;;12.40;99.90;;;;;;4885484;29;20536;-86
2023/10/25 15:04:43;;;;;;;2.90;1.63;;;12.40;99.90;;;;;;4900677;29;20490;-89
2023/10/25 15:07:09;;;;;;;5.53;1.63;;;12.40;99.90;;;;;;4886571;29;20043;-82
2023/10/25 15:09:35;;;;;;;3.47;2.10;;;12.30;99.90;;;;;;4868953;29;20037;-89